createdAt,value
2023-03-15T00:01:19.308Z,7.13
2023-03-15T00:03:47.548Z,9.07
2023-03-15T00:06:15.665Z,10.73
2023-03-15T00:08:47.904Z,8.80
2023-03-15T00:11:17.043Z,7.00
2023-03-15T00:13:45.477Z,6.40
2023-03-15T00:16:17.513Z,7.03
2023-03-15T00:18:48.320Z,7.97
2023-03-15T00:21:15.731Z,5.20
2023-03-15T00:23:42.862Z,7.17
2023-03-15T00:26:10.058Z,7.60
2023-03-15T00:28:37.161Z,5.83
2023-03-15T00:31:23.796Z,6.43
2023-03-15T00:33:55.337Z,7.40
2023-03-15T00:36:24.140Z,7.77
2023-03-15T00:38:53.709Z,8.40
2023-03-15T00:41:29.946Z,11.87
2023-03-15T00:44:11.121Z,12.50
2023-03-15T00:46:38.179Z,10.60
2023-03-15T00:49:05.165Z,7.77
2023-03-15T00:51:33.506Z,12.20
2023-03-15T00:54:00.765Z,11.83
2023-03-15T00:56:30.083Z,12.97
2023-03-15T00:58:58.004Z,9.47
2023-03-15T01:01:29.929Z,12.23
2023-03-15T01:03:57.561Z,13.83
2023-03-15T01:06:27.856Z,11.73
2023-03-15T01:08:56.727Z,8.20
2023-03-15T01:11:27.721Z,11.00
2023-03-15T01:13:57.812Z,10.93
2023-03-15T01:16:26.522Z,9.70
2023-03-15T01:18:54.216Z,10.87
2023-03-15T01:21:23.050Z,10.63
2023-03-15T01:23:50.814Z,11.40
2023-03-15T01:26:18.923Z,8.40
2023-03-15T01:28:46.832Z,9.20
2023-03-15T01:31:30.363Z,10.53
2023-03-15T01:33:59.149Z,8.70
2023-03-15T01:36:26.095Z,6.43
2023-03-15T01:38:54.992Z,12.07
2023-03-15T01:41:23.223Z,8.60
2023-03-15T01:43:50.732Z,9.03
2023-03-15T01:46:25.368Z,12.30
2023-03-15T01:49:13.405Z,12.20
2023-03-15T01:51:47.115Z,8.60
2023-03-15T01:54:42.282Z,9.83
2023-03-15T01:57:36.312Z,10.90
2023-03-15T02:00:11.981Z,11.07
2023-03-15T02:02:53.627Z,7.93
2023-03-15T02:05:38.609Z,11.97
2023-03-15T02:08:08.137Z,13.60
2023-03-15T02:10:41.002Z,12.60
2023-03-15T02:13:09.479Z,9.40
2023-03-15T02:15:36.527Z,14.50
2023-03-15T02:18:03.772Z,12.20
2023-03-15T02:20:42.451Z,11.00
2023-03-15T02:23:13.979Z,10.90
2023-03-15T02:26:05.437Z,17.50
2023-03-15T02:28:32.818Z,12.37
2023-03-15T02:31:00.770Z,10.40
2023-03-15T02:33:39.369Z,15.73
2023-03-15T02:36:19.365Z,17.13
2023-03-15T02:38:47.504Z,12.67
2023-03-15T02:41:19.421Z,13.50
2023-03-15T02:43:50.389Z,8.63
2023-03-15T02:46:18.329Z,10.73
2023-03-15T02:48:46.868Z,8.50
2023-03-15T02:51:23.743Z,8.70
2023-03-15T02:53:50.873Z,13.70
2023-03-15T02:56:17.940Z,11.13
2023-03-15T02:58:45.811Z,9.30
2023-03-15T03:01:14.568Z,12.10
2023-03-15T03:03:43.254Z,10.33
2023-03-15T03:06:12.460Z,14.67
2023-03-15T03:08:39.952Z,13.70
2023-03-15T03:11:07.720Z,10.53
2023-03-15T03:13:34.628Z,8.47
2023-03-15T03:16:02.207Z,15.17
2023-03-15T03:18:30.356Z,15.53
2023-03-15T03:20:59.290Z,9.50
2023-03-15T03:23:27.174Z,15.67
2023-03-15T03:25:56.446Z,11.30
2023-03-15T03:28:29.922Z,11.00
2023-03-15T03:30:58.707Z,14.90
2023-03-15T03:33:25.843Z,13.47
2023-03-15T03:35:54.188Z,11.77
2023-03-15T03:38:21.212Z,14.20
2023-03-15T03:40:48.194Z,11.07
2023-03-15T03:43:15.148Z,13.40
2023-03-15T03:45:42.247Z,8.30
2023-03-15T03:48:09.261Z,13.43
2023-03-15T03:50:36.196Z,13.03
2023-03-15T03:53:03.565Z,13.90
2023-03-15T03:55:30.578Z,11.37
2023-03-15T03:57:57.568Z,11.93
2023-03-15T04:00:24.609Z,13.43
2023-03-15T04:02:54.332Z,16.33
2023-03-15T04:05:21.786Z,11.00
2023-03-15T04:07:48.777Z,11.90
2023-03-15T04:10:16.486Z,12.27
2023-03-15T04:12:44.396Z,12.47
2023-03-15T04:15:31.555Z,14.00
2023-03-15T04:17:58.625Z,9.87
2023-03-15T04:20:27.466Z,12.80
2023-03-15T04:22:54.851Z,8.97
2023-03-15T04:25:22.321Z,9.23
2023-03-15T04:27:58.791Z,10.73
2023-03-15T04:30:30.676Z,9.13
2023-03-15T04:33:03.698Z,11.10
2023-03-15T04:35:36.105Z,7.53
2023-03-15T04:38:07.728Z,8.03
2023-03-15T04:40:39.498Z,8.70
2023-03-15T04:43:06.726Z,12.27
2023-03-15T04:45:35.833Z,12.50
2023-03-15T04:48:07.047Z,7.97
2023-03-15T04:50:34.015Z,11.47
2023-03-15T04:53:01.667Z,6.90
2023-03-15T04:55:29.057Z,12.40
2023-03-15T04:57:56.788Z,10.60
2023-03-15T05:00:24.280Z,11.73
2023-03-15T05:02:55.031Z,12.30
2023-03-15T05:05:26.087Z,10.27
2023-03-15T05:07:54.233Z,6.70
2023-03-15T05:10:21.272Z,7.30
2023-03-15T05:12:58.835Z,10.10
2023-03-15T05:15:25.839Z,6.57
2023-03-15T05:17:55.080Z,9.93
2023-03-15T05:20:23.311Z,8.07
2023-03-15T05:22:50.325Z,11.03
2023-03-15T05:25:17.364Z,8.77
2023-03-15T05:27:46.440Z,6.80
2023-03-15T05:30:15.554Z,10.50
2023-03-15T05:32:44.702Z,7.83
2023-03-15T05:35:13.442Z,6.23
2023-03-15T05:37:40.649Z,14.53
2023-03-15T05:40:09.007Z,8.43
2023-03-15T05:42:37.269Z,9.83
2023-03-15T05:45:04.841Z,10.10
2023-03-15T05:47:33.222Z,6.77
2023-03-15T05:50:00.977Z,9.23
2023-03-15T05:52:28.988Z,8.47
2023-03-15T05:54:55.940Z,7.63
2023-03-15T05:57:22.956Z,6.63
2023-03-15T05:59:50.331Z,7.23
2023-03-15T06:02:17.347Z,6.47
2023-03-15T06:04:44.412Z,8.13
2023-03-15T06:07:11.577Z,7.00
2023-03-15T06:09:38.565Z,7.63
2023-03-15T06:12:25.499Z,5.53
2023-03-15T06:14:52.590Z,7.63
2023-03-15T06:17:19.740Z,8.13
2023-03-15T06:19:46.879Z,9.67
2023-03-15T06:22:13.935Z,5.10
2023-03-15T06:24:41.462Z,6.83
2023-03-15T06:27:08.629Z,7.87
2023-03-15T06:29:35.573Z,9.17
2023-03-15T06:32:03.746Z,7.53
2023-03-15T06:34:30.760Z,8.37
2023-03-15T06:36:57.767Z,7.40
2023-03-15T06:39:24.933Z,6.40
2023-03-15T06:41:58.699Z,5.33
2023-03-15T06:44:25.753Z,6.30
2023-03-15T06:46:52.681Z,5.57
2023-03-15T06:49:19.690Z,5.90
2023-03-15T06:51:46.634Z,9.33
2023-03-15T06:54:13.609Z,4.67
2023-03-15T06:56:41.880Z,6.47
2023-03-15T06:59:08.899Z,7.00
2023-03-15T07:01:35.918Z,5.27
2023-03-15T07:04:03.061Z,4.97
2023-03-15T07:06:30.470Z,5.13
2023-03-15T07:08:57.384Z,6.23
2023-03-15T07:11:24.341Z,6.17
2023-03-15T07:13:51.372Z,5.90
2023-03-15T07:16:18.384Z,6.87
2023-03-15T07:18:45.596Z,7.73
2023-03-15T07:21:12.526Z,8.13
2023-03-15T07:23:39.443Z,6.00
2023-03-15T07:26:06.396Z,6.20
2023-03-15T07:28:33.380Z,4.17
2023-03-15T07:31:04.210Z,5.27
2023-03-15T07:33:33.779Z,6.37
2023-03-15T07:36:04.590Z,8.53
2023-03-15T07:38:32.586Z,10.33
2023-03-15T07:41:03.276Z,7.93
2023-03-15T07:43:30.280Z,8.47
2023-03-15T07:45:57.208Z,8.10
2023-03-15T07:48:24.186Z,6.90
2023-03-15T07:50:51.924Z,6.67
2023-03-15T07:53:18.852Z,8.83
2023-03-15T07:55:48.312Z,5.00
2023-03-15T07:58:15.715Z,6.83
2023-03-15T08:00:43.707Z,6.40
2023-03-15T08:03:48.183Z,4.20
2023-03-15T08:06:15.097Z,6.43
2023-03-15T08:08:42.122Z,10.27
2023-03-15T08:11:09.089Z,4.97
2023-03-15T08:13:36.035Z,5.47
2023-03-15T08:16:03.900Z,5.87
2023-03-15T08:18:31.381Z,11.87
2023-03-15T08:20:59.276Z,5.67
2023-03-15T08:23:26.378Z,5.67
2023-03-15T08:25:53.345Z,7.53
2023-03-15T08:28:20.707Z,8.67
2023-03-15T08:30:47.615Z,6.47
2023-03-15T08:33:14.634Z,7.03
2023-03-15T08:35:41.738Z,6.10
2023-03-15T08:38:09.933Z,9.40
2023-03-15T08:40:38.902Z,8.40
2023-03-15T08:43:06.742Z,8.63
2023-03-15T08:45:51.140Z,5.90
2023-03-15T08:48:20.762Z,7.57
2023-03-15T08:50:47.789Z,6.47
2023-03-15T08:53:14.715Z,7.57
2023-03-15T08:55:41.634Z,10.10
2023-03-15T08:58:08.951Z,9.00
2023-03-15T09:00:35.925Z,13.43
2023-03-15T09:03:03.494Z,21.17
2023-03-15T09:05:30.448Z,13.53
2023-03-15T09:07:57.393Z,8.47
2023-03-15T09:10:24.390Z,11.27
2023-03-15T09:12:53.907Z,7.57
2023-03-15T09:15:21.992Z,9.80
2023-03-15T09:17:51.687Z,6.73
2023-03-15T09:20:22.447Z,7.00
2023-03-15T09:22:58.294Z,9.13
2023-03-15T09:25:26.659Z,6.57
2023-03-15T09:27:54.471Z,8.27
2023-03-15T09:30:21.711Z,11.13
2023-03-15T09:32:49.030Z,7.37
2023-03-15T09:35:19.625Z,6.00
2023-03-15T09:37:57.177Z,9.07
2023-03-15T09:40:34.071Z,7.47
2023-03-15T09:43:07.150Z,7.43
2023-03-15T09:46:15.864Z,7.43
2023-03-15T09:49:04.249Z,8.40
2023-03-15T09:51:47.898Z,11.10
2023-03-15T09:54:33.672Z,6.30
2023-03-15T09:57:15.787Z,10.00
2023-03-15T09:59:47.820Z,6.57
2023-03-15T10:02:27.299Z,8.60
2023-03-15T10:05:24.194Z,7.27
2023-03-15T10:07:51.354Z,5.80
2023-03-15T10:10:43.931Z,7.90
2023-03-15T10:13:30.487Z,5.30
2023-03-15T10:16:17.672Z,5.53
2023-03-15T10:19:02.873Z,4.37
2023-03-15T10:21:50.046Z,6.23
2023-03-15T10:24:48.888Z,4.60
2023-03-15T10:27:23.291Z,11.70
2023-03-15T10:29:55.871Z,7.83
2023-03-15T10:32:31.485Z,6.53
2023-03-15T10:34:58.911Z,5.43
2023-03-15T10:37:26.419Z,6.10
2023-03-15T10:39:59.674Z,10.73
2023-03-15T10:42:29.216Z,6.47
2023-03-15T10:44:57.501Z,8.97
2023-03-15T10:47:26.567Z,5.87
2023-03-15T10:49:59.923Z,8.20
2023-03-15T10:52:40.259Z,5.70
2023-03-15T10:55:21.799Z,8.33
2023-03-15T10:57:59.886Z,7.53
2023-03-15T11:00:36.699Z,5.53
2023-03-15T11:03:21.112Z,3.10
2023-03-15T11:05:52.656Z,8.07
2023-03-15T11:08:24.730Z,6.80
2023-03-15T11:10:59.993Z,6.63
2023-03-15T11:13:32.911Z,4.27
2023-03-15T11:16:05.745Z,3.00
2023-03-15T11:18:55.603Z,5.40
2023-03-15T11:21:26.973Z,4.70
2023-03-15T11:23:54.740Z,6.63
2023-03-15T11:26:33.258Z,5.53
2023-03-15T11:29:40.870Z,6.33
2023-03-15T11:32:22.822Z,6.17
2023-03-15T11:35:07.272Z,4.57
2023-03-15T11:37:46.026Z,4.83
2023-03-15T11:40:19.184Z,5.40
2023-03-15T11:43:04.505Z,5.10
2023-03-15T11:46:06.528Z,3.17
2023-03-15T11:48:42.276Z,3.53
2023-03-15T11:51:12.228Z,2.70
2023-03-15T11:53:48.970Z,4.90
2023-03-15T11:56:24.823Z,3.70
2023-03-15T11:59:26.497Z,3.67
2023-03-15T12:02:19.596Z,3.93
2023-03-15T12:04:49.334Z,6.90
2023-03-15T12:07:19.529Z,5.77
2023-03-15T12:09:57.322Z,4.73
2023-03-15T12:12:27.237Z,4.53
2023-03-15T12:15:14.761Z,3.43
2023-03-15T12:17:56.880Z,5.87
2023-03-15T12:20:41.152Z,3.70
2023-03-15T12:23:17.097Z,4.30
2023-03-15T12:26:02.475Z,3.03
2023-03-15T12:29:01.161Z,3.70
2023-03-15T12:32:05.141Z,3.80
2023-03-15T12:34:55.308Z,4.57
2023-03-15T12:37:42.478Z,5.53
2023-03-15T12:40:15.530Z,3.63
2023-03-15T12:42:42.405Z,3.73
2023-03-15T12:45:18.531Z,3.03
2023-03-15T12:47:51.591Z,4.43
2023-03-15T12:50:47.045Z,2.20
2023-03-15T12:53:22.869Z,5.00
2023-03-15T12:55:59.457Z,4.67
2023-03-15T12:58:37.456Z,4.50
2023-03-15T13:01:07.656Z,3.73
2023-03-15T13:03:36.444Z,3.03
2023-03-15T13:06:42.552Z,3.33
2023-03-15T13:09:26.273Z,2.93
2023-03-15T13:12:02.338Z,5.90
2023-03-15T13:14:29.173Z,4.50
2023-03-15T13:17:17.048Z,3.60
2023-03-15T13:19:47.425Z,2.80
2023-03-15T13:22:36.066Z,2.23
2023-03-15T13:25:19.204Z,3.37
2023-03-15T13:27:56.155Z,3.40
2023-03-15T13:30:55.755Z,4.07
2023-03-15T13:33:31.932Z,2.13
2023-03-15T13:36:16.191Z,5.23
2023-03-15T13:38:48.070Z,5.77
2023-03-15T13:41:22.081Z,3.10
2023-03-15T13:43:51.673Z,2.40
2023-03-15T13:46:25.329Z,3.63
2023-03-15T13:48:54.963Z,3.33
2023-03-15T13:51:36.276Z,3.67
2023-03-15T13:54:09.161Z,3.77
2023-03-15T13:56:55.574Z,4.60
2023-03-15T13:59:34.804Z,4.80
2023-03-15T14:02:05.919Z,3.40
2023-03-15T14:04:37.952Z,2.40
2023-03-15T14:07:39.127Z,5.07
2023-03-15T14:10:38.225Z,5.50
2023-03-15T14:13:35.203Z,5.60
2023-03-15T14:16:12.450Z,7.53
2023-03-15T14:18:41.368Z,7.03
2023-03-15T14:21:20.487Z,9.13
2023-03-15T14:23:49.343Z,11.87
2023-03-15T14:26:29.267Z,9.33
2023-03-15T14:29:53.543Z,7.77
2023-03-15T14:32:38.035Z,8.20
2023-03-15T14:35:33.149Z,6.77
2023-03-15T14:38:07.718Z,6.17
2023-03-15T14:40:39.216Z,6.40
2023-03-15T14:43:07.986Z,6.67
2023-03-15T14:45:37.937Z,3.43
2023-03-15T14:48:28.512Z,3.30
2023-03-15T14:50:56.341Z,2.90
2023-03-15T14:53:26.281Z,2.53
2023-03-15T14:55:53.212Z,2.40
2023-03-15T14:58:22.431Z,2.50
2023-03-15T15:00:53.508Z,4.67
2023-03-15T15:03:39.632Z,2.37
2023-03-15T15:06:13.388Z,2.87
2023-03-15T15:08:47.384Z,4.13
2023-03-15T15:11:15.734Z,4.60
2023-03-15T15:13:43.047Z,3.20
2023-03-15T15:16:10.319Z,5.27
2023-03-15T15:18:38.007Z,2.20
2023-03-15T15:21:14.053Z,3.77
2023-03-15T15:23:56.971Z,3.23
2023-03-15T15:26:28.001Z,2.50
2023-03-15T15:28:55.224Z,3.97
2023-03-15T15:31:25.299Z,4.77
2023-03-15T15:33:54.163Z,3.47
2023-03-15T15:36:31.193Z,5.93
2023-03-15T15:39:06.347Z,3.40
2023-03-15T15:41:34.322Z,9.60
2023-03-15T15:44:01.840Z,4.63
2023-03-15T15:46:29.007Z,3.63
2023-03-15T15:48:56.104Z,4.50
2023-03-15T15:51:30.111Z,5.27
2023-03-15T15:54:00.009Z,3.10
2023-03-15T15:56:44.163Z,6.37
2023-03-15T15:59:14.986Z,3.07
2023-03-15T16:01:59.042Z,6.63
2023-03-15T16:04:26.531Z,2.50
2023-03-15T16:07:01.770Z,3.13
2023-03-15T16:09:31.906Z,4.97
2023-03-15T16:11:59.247Z,4.03
2023-03-15T16:14:26.238Z,5.77
2023-03-15T16:16:53.214Z,2.57
2023-03-15T16:19:20.199Z,3.87
2023-03-15T16:21:50.793Z,5.10
2023-03-15T16:24:28.919Z,3.63
2023-03-15T16:27:05.604Z,3.33
2023-03-15T16:29:39.934Z,3.70
2023-03-15T16:32:17.624Z,3.93
2023-03-15T16:34:49.420Z,6.17
2023-03-15T16:37:20.871Z,4.13
2023-03-15T16:39:50.700Z,2.40
2023-03-15T16:42:19.807Z,5.67
2023-03-15T16:44:46.851Z,3.57
2023-03-15T16:47:13.832Z,5.40
2023-03-15T16:49:40.834Z,4.43
2023-03-15T16:52:09.881Z,3.73
2023-03-15T16:54:41.360Z,5.83
2023-03-15T16:57:21.949Z,5.33
2023-03-15T16:59:49.932Z,5.43
2023-03-15T17:02:28.883Z,3.50
2023-03-15T17:04:56.002Z,3.67
2023-03-15T17:07:30.368Z,4.07
2023-03-15T17:09:58.056Z,5.27
2023-03-15T17:12:28.093Z,5.10
2023-03-15T17:14:59.085Z,5.13
2023-03-15T17:17:33.150Z,4.03
2023-03-15T17:20:00.961Z,4.80
2023-03-15T17:22:29.371Z,4.50
2023-03-15T17:24:56.424Z,2.73
2023-03-15T17:27:38.172Z,5.30
2023-03-15T17:30:30.210Z,3.97
2023-03-15T17:32:57.535Z,2.57
2023-03-15T17:35:37.132Z,3.77
2023-03-15T17:38:07.414Z,3.60
2023-03-15T17:40:36.778Z,7.40
2023-03-15T17:43:04.664Z,3.50
2023-03-15T17:45:34.686Z,5.90
2023-03-15T17:48:03.474Z,5.83
2023-03-15T17:50:33.978Z,7.57
2023-03-15T17:53:07.937Z,5.40
2023-03-15T17:55:35.688Z,4.70
2023-03-15T17:58:06.313Z,7.90
2023-03-15T18:00:33.850Z,4.70
2023-03-15T18:03:04.621Z,5.80
2023-03-15T18:05:32.313Z,5.13
2023-03-15T18:08:00.485Z,5.53
2023-03-15T18:10:39.842Z,4.20
2023-03-15T18:13:07.814Z,6.50
2023-03-15T18:15:35.149Z,7.63
2023-03-15T18:18:04.564Z,6.13
2023-03-15T18:20:33.770Z,6.77
2023-03-15T18:23:01.158Z,10.23
2023-03-15T18:25:32.032Z,8.30
2023-03-15T18:28:00.143Z,10.57
2023-03-15T18:30:31.312Z,9.33
2023-03-15T18:32:59.731Z,6.97
2023-03-15T18:35:36.004Z,11.30
2023-03-15T18:38:05.372Z,7.23
2023-03-15T18:40:34.270Z,10.37
2023-03-15T18:43:04.072Z,9.77
2023-03-15T18:45:34.398Z,10.43
2023-03-15T18:48:01.536Z,8.77
2023-03-15T18:50:30.003Z,8.40
2023-03-15T18:52:58.130Z,8.03
2023-03-15T18:55:26.211Z,8.13
2023-03-15T18:57:54.822Z,11.10
2023-03-15T19:00:29.709Z,8.83
2023-03-15T19:02:59.943Z,8.23
2023-03-15T19:05:28.861Z,7.73
2023-03-15T19:07:55.866Z,7.77
2023-03-15T19:10:24.837Z,6.10
2023-03-15T19:12:53.133Z,6.77
2023-03-15T19:15:22.740Z,7.07
2023-03-15T19:17:54.416Z,7.07
2023-03-15T19:20:23.007Z,7.03
2023-03-15T19:22:51.550Z,13.40
2023-03-15T19:25:19.444Z,6.57
2023-03-15T19:27:46.839Z,5.97
2023-03-15T19:30:20.829Z,8.30
2023-03-15T19:32:49.974Z,7.30
2023-03-15T19:35:19.389Z,9.17
2023-03-15T19:37:47.626Z,6.13
2023-03-15T19:40:15.758Z,7.10
2023-03-15T19:42:43.396Z,6.93
2023-03-15T19:45:12.220Z,5.37
2023-03-15T19:47:39.564Z,5.77
2023-03-15T19:50:08.403Z,6.63
2023-03-15T19:52:35.418Z,5.77
2023-03-15T19:55:02.413Z,5.63
2023-03-15T19:57:29.414Z,7.13
2023-03-15T19:59:56.340Z,7.13
2023-03-15T20:02:23.424Z,5.67
2023-03-15T20:04:50.487Z,6.57
2023-03-15T20:07:18.108Z,7.93
2023-03-15T20:09:45.174Z,6.43
2023-03-15T20:12:13.345Z,8.30
2023-03-15T20:14:40.725Z,6.33
2023-03-15T20:17:07.790Z,7.30
2023-03-15T20:19:36.149Z,6.37
2023-03-15T20:22:04.580Z,5.13
2023-03-15T20:24:31.696Z,5.23
2023-03-15T20:26:58.732Z,6.27
2023-03-15T20:29:25.751Z,9.43
2023-03-15T20:31:53.503Z,6.50
2023-03-15T20:34:22.147Z,5.80
2023-03-15T20:36:49.161Z,4.00
2023-03-15T20:39:18.421Z,6.33
2023-03-15T20:41:45.587Z,6.93
2023-03-15T20:44:12.830Z,5.93
2023-03-15T20:46:40.301Z,7.63
2023-03-15T20:49:08.456Z,6.77
2023-03-15T20:51:35.619Z,8.03
2023-03-15T20:54:03.592Z,5.73
2023-03-15T20:56:31.109Z,8.57
2023-03-15T20:58:58.585Z,4.93
2023-03-15T21:01:25.976Z,7.10
2023-03-15T21:03:57.345Z,10.30
2023-03-15T21:06:24.949Z,7.10
2023-03-15T21:08:52.583Z,7.57
2023-03-15T21:11:20.006Z,9.73
2023-03-15T21:13:47.558Z,7.23
2023-03-15T21:16:15.181Z,6.83
2023-03-15T21:18:45.294Z,8.77
2023-03-15T21:21:13.074Z,9.33
2023-03-15T21:23:42.162Z,9.27
2023-03-15T21:26:12.258Z,9.93
2023-03-15T21:28:40.242Z,9.83
2023-03-15T21:31:08.640Z,10.60
2023-03-15T21:33:36.439Z,13.00
2023-03-15T21:36:04.215Z,8.87
2023-03-15T21:38:34.265Z,10.73
2023-03-15T21:41:07.431Z,9.00
2023-03-15T21:43:35.572Z,9.30
2023-03-15T21:46:07.415Z,11.37
2023-03-15T21:48:35.636Z,10.03
2023-03-15T21:51:03.640Z,13.70
2023-03-15T21:53:36.042Z,11.17
2023-03-15T21:56:05.134Z,9.17
2023-03-15T21:58:33.235Z,10.13
2023-03-15T22:01:04.873Z,15.83
2023-03-15T22:03:34.046Z,8.90
2023-03-15T22:06:02.294Z,7.90
2023-03-15T22:08:29.539Z,10.23
2023-03-15T22:10:58.500Z,12.77
2023-03-15T22:13:26.873Z,12.97
2023-03-15T22:15:53.907Z,10.33
2023-03-15T22:18:21.486Z,12.17
2023-03-15T22:20:51.051Z,11.37
2023-03-15T22:23:18.506Z,11.13
2023-03-15T22:25:45.846Z,12.43
2023-03-15T22:28:13.043Z,12.17
2023-03-15T22:30:40.899Z,9.30
2023-03-15T22:33:08.631Z,12.70
2023-03-15T22:35:35.810Z,11.83
2023-03-15T22:38:09.946Z,14.43
2023-03-15T22:40:39.895Z,11.20
2023-03-15T22:43:08.252Z,10.80
2023-03-15T22:45:35.429Z,13.33
2023-03-15T22:48:03.306Z,13.53
2023-03-15T22:50:30.481Z,12.23
2023-03-15T22:52:57.523Z,12.57
2023-03-15T22:55:25.090Z,14.17
2023-03-15T22:57:52.381Z,10.53
2023-03-15T23:00:22.514Z,11.30
2023-03-15T23:02:49.566Z,11.30
2023-03-15T23:05:19.610Z,13.27
2023-03-15T23:07:47.148Z,13.93
2023-03-15T23:10:14.773Z,13.20
2023-03-15T23:12:41.863Z,16.90
2023-03-15T23:15:10.378Z,14.10
2023-03-15T23:17:37.399Z,11.73
2023-03-15T23:20:07.276Z,15.63
2023-03-15T23:22:34.315Z,11.90
2023-03-15T23:25:02.040Z,13.13
2023-03-15T23:27:29.609Z,10.77
2023-03-15T23:29:56.548Z,15.43
2023-03-15T23:32:31.712Z,16.47
2023-03-15T23:35:03.484Z,8.83
2023-03-15T23:37:30.500Z,12.93
2023-03-15T23:39:57.731Z,12.20
2023-03-15T23:42:25.974Z,9.00
2023-03-15T23:45:05.878Z,14.30
2023-03-15T23:47:32.895Z,10.90
2023-03-15T23:49:59.845Z,9.33
2023-03-15T23:52:26.796Z,13.20
2023-03-15T23:54:53.983Z,14.13
2023-03-15T23:57:21.501Z,11.27
2023-03-15T23:59:48.636Z,12.17
